createdAt,value
2023-01-19T00:00:15.692Z,80.69
2023-01-19T00:02:47.753Z,80.68
2023-01-19T00:04:55.275Z,80.61
2023-01-19T00:07:05.711Z,80.75
2023-01-19T00:09:15.544Z,80.61
2023-01-19T00:11:25.231Z,80.47
2023-01-19T00:13:35.711Z,80.64
2023-01-19T00:15:45.646Z,80.64
2023-01-19T00:17:55.346Z,80.62
2023-01-19T00:20:05.539Z,80.77
2023-01-19T00:22:15.957Z,80.66
2023-01-19T00:24:27.473Z,80.81
2023-01-19T00:26:40.828Z,80.54
2023-01-19T00:28:51.528Z,80.66
2023-01-19T00:31:01.292Z,80.82
2023-01-19T00:33:11.508Z,80.79
2023-01-19T00:35:21.614Z,80.80
2023-01-19T00:37:31.457Z,80.76
2023-01-19T00:39:41.181Z,80.72
2023-01-19T00:42:07.873Z,80.88
2023-01-19T00:44:18.061Z,80.72
2023-01-19T00:46:27.821Z,80.81
2023-01-19T00:48:37.675Z,80.98
2023-01-19T00:50:48.075Z,81.03
2023-01-19T00:53:01.677Z,81.03
2023-01-19T00:55:14.033Z,81.03
2023-01-19T00:57:23.981Z,81.05
2023-01-19T00:59:33.910Z,80.87
2023-01-19T01:01:46.227Z,80.89
2023-01-19T01:03:57.575Z,80.81
2023-01-19T01:06:08.763Z,80.82
2023-01-19T01:08:18.795Z,80.72
2023-01-19T01:10:30.999Z,80.85
2023-01-19T01:12:41.614Z,80.83
2023-01-19T01:15:06.044Z,80.96
2023-01-19T01:17:16.085Z,80.86
2023-01-19T01:19:26.693Z,81.01
2023-01-19T01:21:37.684Z,80.76
2023-01-19T01:23:48.109Z,80.83
2023-01-19T01:25:58.079Z,80.81
2023-01-19T01:28:09.273Z,80.85
2023-01-19T01:30:20.141Z,80.67
2023-01-19T01:32:30.154Z,80.85
2023-01-19T01:34:40.212Z,80.52
2023-01-19T01:36:50.069Z,80.80
2023-01-19T01:39:00.248Z,80.68
2023-01-19T01:41:10.701Z,80.69
2023-01-19T01:43:22.092Z,80.55
2023-01-19T01:45:38.704Z,80.50
2023-01-19T01:47:51.582Z,80.55
2023-01-19T01:50:08.496Z,80.50
2023-01-19T01:52:19.997Z,80.58
2023-01-19T01:54:32.991Z,80.31
2023-01-19T01:56:44.630Z,80.46
2023-01-19T01:58:54.807Z,80.35
2023-01-19T02:01:22.630Z,80.22
2023-01-19T02:03:33.573Z,80.19
2023-01-19T02:05:44.108Z,79.86
2023-01-19T02:08:17.752Z,79.94
2023-01-19T02:10:45.009Z,80.06
2023-01-19T02:13:12.224Z,80.10
2023-01-19T02:15:24.074Z,80.19
2023-01-19T02:17:34.187Z,80.00
2023-01-19T02:19:46.893Z,80.04
2023-01-19T02:22:01.699Z,80.04
2023-01-19T02:24:12.586Z,79.97
2023-01-19T02:26:25.494Z,79.96
2023-01-19T02:28:36.276Z,79.93
2023-01-19T02:30:46.691Z,80.04
2023-01-19T02:32:56.661Z,80.00
2023-01-19T02:35:07.006Z,80.07
2023-01-19T02:37:18.934Z,79.99
2023-01-19T02:39:33.775Z,80.00
2023-01-19T02:41:47.317Z,80.12
2023-01-19T02:43:59.060Z,80.05
2023-01-19T02:46:07.308Z,80.15
2023-01-19T02:48:18.573Z,80.07
2023-01-19T02:50:47.198Z,80.24
2023-01-19T02:53:02.266Z,80.36
2023-01-19T02:55:18.729Z,80.34
2023-01-19T02:57:54.282Z,80.37
2023-01-19T03:00:15.192Z,80.45
2023-01-19T03:02:35.039Z,80.39
2023-01-19T03:05:00.550Z,80.39
2023-01-19T03:07:13.582Z,80.14
2023-01-19T03:09:30.827Z,80.28
2023-01-19T03:11:46.326Z,80.26
2023-01-19T03:14:01.929Z,80.34
2023-01-19T03:16:18.201Z,80.09
2023-01-19T03:18:31.039Z,80.36
2023-01-19T03:20:42.241Z,80.27
2023-01-19T03:22:55.697Z,80.10
2023-01-19T03:25:06.385Z,80.24
2023-01-19T03:27:20.322Z,80.48
2023-01-19T03:29:35.238Z,80.44
2023-01-19T03:31:48.129Z,80.48
2023-01-19T03:34:02.888Z,80.48
2023-01-19T03:36:17.951Z,80.55
2023-01-19T03:38:30.636Z,80.41
2023-01-19T03:40:41.266Z,80.37
2023-01-19T03:42:52.263Z,80.46
2023-01-19T03:45:04.901Z,80.72
2023-01-19T03:47:16.483Z,80.47
2023-01-19T03:49:26.989Z,80.42
2023-01-19T03:51:40.676Z,80.40
2023-01-19T03:53:51.198Z,80.36
2023-01-19T03:56:01.355Z,80.42
2023-01-19T03:58:11.539Z,80.37
2023-01-19T04:00:22.873Z,80.29
2023-01-19T04:02:33.204Z,80.38
2023-01-19T04:04:43.203Z,80.16
2023-01-19T04:06:53.407Z,80.45
2023-01-19T04:09:03.218Z,80.38
2023-01-19T04:11:13.780Z,80.37
2023-01-19T04:13:23.610Z,80.40
2023-01-19T04:15:34.322Z,80.24
2023-01-19T04:17:44.712Z,80.55
2023-01-19T04:19:54.392Z,80.71
2023-01-19T04:22:05.232Z,80.54
2023-01-19T04:24:15.181Z,80.33
2023-01-19T04:26:25.377Z,80.60
2023-01-19T04:28:37.479Z,80.55
2023-01-19T04:30:47.591Z,80.51
2023-01-19T04:33:00.787Z,80.50
2023-01-19T04:35:11.879Z,80.73
2023-01-19T04:37:21.998Z,80.42
2023-01-19T04:39:32.121Z,80.48
2023-01-19T04:41:42.131Z,80.59
2023-01-19T04:43:52.111Z,80.26
2023-01-19T04:46:02.104Z,80.51
2023-01-19T04:48:12.147Z,80.46
2023-01-19T04:50:22.535Z,80.63
2023-01-19T04:52:37.758Z,80.76
2023-01-19T04:54:48.056Z,80.40
2023-01-19T04:56:58.307Z,80.68
2023-01-19T04:59:08.744Z,80.71
2023-01-19T05:01:21.372Z,80.49
2023-01-19T05:03:31.541Z,80.45
2023-01-19T05:05:41.730Z,80.51
2023-01-19T05:07:51.908Z,80.74
2023-01-19T05:10:01.954Z,80.38
2023-01-19T05:12:12.337Z,80.67
2023-01-19T05:14:22.697Z,80.47
2023-01-19T05:16:32.746Z,80.37
2023-01-19T05:18:42.581Z,80.38
2023-01-19T05:20:52.427Z,80.27
2023-01-19T05:23:02.681Z,80.56
2023-01-19T05:25:13.948Z,80.49
2023-01-19T05:27:23.829Z,80.43
2023-01-19T05:29:33.689Z,80.87
2023-01-19T05:31:44.952Z,80.48
2023-01-19T05:33:55.108Z,80.46
2023-01-19T05:36:05.965Z,80.42
2023-01-19T05:38:18.817Z,80.38
2023-01-19T05:40:30.839Z,80.69
2023-01-19T05:42:41.106Z,80.27
2023-01-19T05:44:51.129Z,80.26
2023-01-19T05:47:01.169Z,80.61
2023-01-19T05:49:11.066Z,80.47
2023-01-19T05:51:21.286Z,80.17
2023-01-19T05:53:31.374Z,80.28
2023-01-19T05:55:41.322Z,80.49
2023-01-19T05:57:51.363Z,80.54
2023-01-19T06:00:01.450Z,80.59
2023-01-19T06:02:19.283Z,80.41
2023-01-19T06:04:29.484Z,80.52
2023-01-19T06:06:39.350Z,80.40
2023-01-19T06:08:49.456Z,80.62
2023-01-19T06:10:59.424Z,80.57
2023-01-19T06:13:11.569Z,80.35
2023-01-19T06:15:21.758Z,80.71
2023-01-19T06:17:33.989Z,80.56
2023-01-19T06:19:44.472Z,80.52
2023-01-19T06:21:54.495Z,80.50
2023-01-19T06:24:04.306Z,80.42
2023-01-19T06:26:14.110Z,80.26
2023-01-19T06:28:24.126Z,80.40
2023-01-19T06:30:33.779Z,80.36
2023-01-19T06:32:43.887Z,80.36
2023-01-19T06:34:54.136Z,80.39
2023-01-19T06:37:04.305Z,80.40
2023-01-19T06:39:14.861Z,80.41
2023-01-19T06:41:24.727Z,80.40
2023-01-19T06:43:34.937Z,80.21
2023-01-19T06:45:46.109Z,80.39
2023-01-19T06:47:56.615Z,80.42
2023-01-19T06:50:06.578Z,80.36
2023-01-19T06:52:18.760Z,80.56
2023-01-19T06:54:28.715Z,80.36
2023-01-19T06:56:38.650Z,80.40
2023-01-19T06:58:50.835Z,80.25
2023-01-19T07:01:05.262Z,80.37
2023-01-19T07:03:21.014Z,80.38
2023-01-19T07:05:31.062Z,80.53
2023-01-19T07:07:40.966Z,80.10
2023-01-19T07:09:53.875Z,80.14
2023-01-19T07:12:04.036Z,80.21
2023-01-19T07:14:14.212Z,80.17
2023-01-19T07:16:25.426Z,80.29
2023-01-19T07:18:35.299Z,80.47
2023-01-19T07:20:49.575Z,80.35
2023-01-19T07:23:01.289Z,80.55
2023-01-19T07:25:12.234Z,80.50
2023-01-19T07:27:23.191Z,80.37
2023-01-19T07:29:33.168Z,80.38
2023-01-19T07:31:43.167Z,80.71
2023-01-19T07:33:53.827Z,80.99
2023-01-19T07:36:03.506Z,80.96
2023-01-19T07:38:13.331Z,81.02
2023-01-19T07:40:24.055Z,81.02
2023-01-19T07:42:34.175Z,80.62
2023-01-19T07:44:43.699Z,80.65
2023-01-19T07:46:53.393Z,80.73
2023-01-19T07:49:03.090Z,80.93
2023-01-19T07:51:18.239Z,80.82
2023-01-19T07:53:28.322Z,80.77
2023-01-19T07:55:38.573Z,80.80
2023-01-19T07:57:49.967Z,80.88
2023-01-19T07:59:59.737Z,81.12
2023-01-19T08:02:11.267Z,80.73
2023-01-19T08:04:21.896Z,80.71
2023-01-19T08:06:35.492Z,80.85
2023-01-19T08:08:45.576Z,80.63
2023-01-19T08:10:58.116Z,80.84
2023-01-19T08:13:07.909Z,80.71
2023-01-19T08:15:17.672Z,80.60
2023-01-19T08:17:27.616Z,80.71
2023-01-19T08:19:37.257Z,80.51
2023-01-19T08:21:47.832Z,80.42
2023-01-19T08:24:01.524Z,80.42
2023-01-19T08:26:27.777Z,80.56
2023-01-19T08:28:37.715Z,80.42
2023-01-19T08:30:54.421Z,80.51
2023-01-19T08:33:08.488Z,80.44
2023-01-19T08:35:19.000Z,80.40
2023-01-19T08:37:29.090Z,80.55
2023-01-19T08:39:39.050Z,80.24
2023-01-19T08:41:49.008Z,80.40
2023-01-19T08:43:58.823Z,80.36
2023-01-19T08:46:09.103Z,80.30
2023-01-19T08:48:20.301Z,80.75
2023-01-19T08:50:31.279Z,80.57
2023-01-19T08:52:41.607Z,80.80
2023-01-19T08:54:51.422Z,80.44
2023-01-19T08:57:01.315Z,80.27
2023-01-19T08:59:12.997Z,80.57
2023-01-19T09:01:24.396Z,80.49
2023-01-19T09:03:34.313Z,80.62
2023-01-19T09:05:44.437Z,80.42
2023-01-19T09:07:54.313Z,80.41
2023-01-19T09:10:04.219Z,80.22
2023-01-19T09:12:14.077Z,80.29
2023-01-19T09:14:23.680Z,80.52
2023-01-19T09:16:33.808Z,80.87
2023-01-19T09:18:45.542Z,80.42
2023-01-19T09:20:58.985Z,80.42
2023-01-19T09:23:11.030Z,80.51
2023-01-19T09:25:18.923Z,80.51
2023-01-19T09:27:29.020Z,80.65
2023-01-19T09:29:38.871Z,80.86
2023-01-19T09:31:49.244Z,80.71
2023-01-19T09:33:59.102Z,80.59
2023-01-19T09:36:10.223Z,80.79
2023-01-19T09:38:20.902Z,80.89
2023-01-19T09:40:31.931Z,80.84
2023-01-19T09:42:46.384Z,80.49
2023-01-19T09:44:56.297Z,80.63
2023-01-19T09:47:15.621Z,80.86
2023-01-19T09:49:31.073Z,80.66
2023-01-19T09:51:44.292Z,80.54
2023-01-19T09:54:06.492Z,80.60
2023-01-19T09:56:16.262Z,80.47
2023-01-19T09:58:26.701Z,80.86
2023-01-19T10:00:36.431Z,80.61
2023-01-19T10:02:50.453Z,80.88
2023-01-19T10:05:04.057Z,81.08
2023-01-19T10:07:25.535Z,80.94
2023-01-19T10:09:38.892Z,80.89
2023-01-19T10:11:53.722Z,80.87
2023-01-19T10:14:05.619Z,80.70
2023-01-19T10:16:26.821Z,80.81
2023-01-19T10:18:47.867Z,80.41
2023-01-19T10:21:05.592Z,80.84
2023-01-19T10:23:27.315Z,80.54
2023-01-19T10:25:37.362Z,80.81
2023-01-19T10:27:48.444Z,80.73
2023-01-19T10:33:40.403Z,80.78
2023-01-19T10:35:50.863Z,80.65
2023-01-19T10:38:03.920Z,80.88
2023-01-19T10:40:27.779Z,80.61
2023-01-19T10:42:38.160Z,80.47
2023-01-19T10:44:51.113Z,80.53
2023-01-19T10:47:02.589Z,80.53
2023-01-19T10:49:28.516Z,80.75
2023-01-19T10:51:48.596Z,80.77
2023-01-19T10:54:06.742Z,80.52
2023-01-19T10:56:23.804Z,80.43
2023-01-19T10:58:36.793Z,80.71
2023-01-19T11:00:47.258Z,80.61
2023-01-19T11:02:57.073Z,80.76
2023-01-19T11:05:28.371Z,80.71
2023-01-19T11:07:39.062Z,80.64
2023-01-19T11:09:49.598Z,80.51
2023-01-19T11:11:59.919Z,80.56
2023-01-19T11:14:14.495Z,80.30
2023-01-19T11:16:27.789Z,80.67
2023-01-19T11:18:39.550Z,80.41
2023-01-19T11:20:55.243Z,80.49
2023-01-19T11:23:21.064Z,80.39
2023-01-19T11:25:35.292Z,80.57
2023-01-19T11:27:53.926Z,80.56
2023-01-19T11:30:10.881Z,80.56
2023-01-19T11:32:29.323Z,80.66
2023-01-19T11:34:40.179Z,80.80
2023-01-19T11:37:00.739Z,80.87
2023-01-19T11:39:25.774Z,80.81
2023-01-19T11:41:39.035Z,80.62
2023-01-19T11:43:51.054Z,80.87
2023-01-19T11:46:01.621Z,80.88
2023-01-19T11:48:20.608Z,80.85
2023-01-19T11:50:35.182Z,81.02
2023-01-19T11:52:47.976Z,81.13
2023-01-19T11:55:03.379Z,81.14
2023-01-19T11:57:18.627Z,81.02
2023-01-19T11:59:28.459Z,81.03
2023-01-19T12:01:41.984Z,81.02
2023-01-19T12:03:59.102Z,80.95
2023-01-19T12:06:13.970Z,81.33
2023-01-19T12:08:28.404Z,81.04
2023-01-19T12:10:43.993Z,81.33
2023-01-19T12:12:55.407Z,81.31
2023-01-19T12:15:10.865Z,81.01
2023-01-19T12:17:26.744Z,81.30
2023-01-19T12:19:44.975Z,81.10
2023-01-19T12:21:55.318Z,81.13
2023-01-19T12:24:19.054Z,81.05
2023-01-19T12:26:35.712Z,81.45
2023-01-19T12:28:49.138Z,81.13
2023-01-19T12:31:00.056Z,81.16
2023-01-19T12:33:37.919Z,81.09
2023-01-19T12:36:02.759Z,81.18
2023-01-19T12:38:40.127Z,81.12
2023-01-19T12:40:50.348Z,80.92
2023-01-19T12:43:05.749Z,80.94
2023-01-19T12:45:23.412Z,80.89
2023-01-19T12:47:33.527Z,81.03
2023-01-19T12:49:47.875Z,80.89
2023-01-19T12:52:13.372Z,81.10
2023-01-19T12:54:30.564Z,80.87
2023-01-19T12:56:41.142Z,80.87
2023-01-19T12:58:53.435Z,81.00
2023-01-19T13:01:16.935Z,81.26
2023-01-19T13:03:47.742Z,81.26
2023-01-19T13:05:58.760Z,81.33
2023-01-19T13:08:22.695Z,81.02
2023-01-19T13:11:20.062Z,81.30
2023-01-19T13:13:32.153Z,80.97
2023-01-19T13:15:42.090Z,81.15
2023-01-19T13:17:54.727Z,80.96
2023-01-19T13:20:27.945Z,81.06
2023-01-19T13:23:14.108Z,80.88
2023-01-19T13:25:36.353Z,80.97
2023-01-19T13:27:48.008Z,80.83
2023-01-19T13:29:59.436Z,80.67
2023-01-19T13:32:16.287Z,80.97
2023-01-19T13:34:29.423Z,80.89
2023-01-19T13:36:42.595Z,80.90
2023-01-19T13:38:53.534Z,80.65
2023-01-19T13:41:05.421Z,80.68
2023-01-19T13:43:20.893Z,80.47
2023-01-19T13:45:34.977Z,80.79
2023-01-19T13:47:49.370Z,80.49
2023-01-19T13:50:02.992Z,80.63
2023-01-19T13:52:14.316Z,80.59
2023-01-19T13:54:26.395Z,80.76
2023-01-19T13:56:36.236Z,80.74
2023-01-19T13:58:46.572Z,80.78
2023-01-19T14:00:56.805Z,80.91
2023-01-19T14:03:21.824Z,80.88
2023-01-19T14:05:33.983Z,80.82
2023-01-19T14:07:44.146Z,80.78
2023-01-19T14:10:05.507Z,80.84
2023-01-19T14:12:20.417Z,80.87
2023-01-19T14:14:31.760Z,80.59
2023-01-19T14:16:41.894Z,80.62
2023-01-19T14:19:05.075Z,80.34
2023-01-19T14:21:16.764Z,80.62
2023-01-19T14:23:47.360Z,80.48
2023-01-19T14:25:57.929Z,80.75
2023-01-19T14:28:41.046Z,80.70
2023-01-19T14:31:00.182Z,80.67
2023-01-19T14:33:14.959Z,80.78
2023-01-19T14:35:30.469Z,80.90
2023-01-19T14:37:48.660Z,80.74
2023-01-19T14:40:04.969Z,80.69
2023-01-19T14:42:22.440Z,80.52
2023-01-19T14:44:35.836Z,80.72
2023-01-19T14:46:51.069Z,80.73
2023-01-19T14:49:05.625Z,80.88
2023-01-19T14:51:24.060Z,80.59
2023-01-19T14:53:39.118Z,80.60
2023-01-19T14:55:52.745Z,80.92
2023-01-19T14:58:02.719Z,80.44
2023-01-19T15:00:18.136Z,80.44
2023-01-19T15:02:28.234Z,80.74
2023-01-19T15:04:38.536Z,80.95
2023-01-19T15:06:48.834Z,80.76
2023-01-19T15:08:59.744Z,80.71
2023-01-19T15:11:15.086Z,80.39
2023-01-19T15:13:27.585Z,80.22
2023-01-19T15:15:38.574Z,80.55
2023-01-19T15:17:48.789Z,80.64
2023-01-19T15:19:59.054Z,80.61
2023-01-19T15:22:15.259Z,80.58
2023-01-19T15:24:25.023Z,80.45
2023-01-19T15:26:35.008Z,80.43
2023-01-19T15:28:44.826Z,80.58
2023-01-19T15:30:55.373Z,80.33
2023-01-19T15:33:05.470Z,80.38
2023-01-19T15:35:19.817Z,80.64
2023-01-19T15:37:29.778Z,80.30
2023-01-19T15:39:40.113Z,80.42
2023-01-19T15:41:49.901Z,80.55
2023-01-19T15:44:00.146Z,80.34
2023-01-19T15:46:13.110Z,80.74
2023-01-19T15:48:23.766Z,80.75
2023-01-19T15:50:38.014Z,80.68
2023-01-19T15:52:48.122Z,80.69
2023-01-19T15:54:57.927Z,80.72
2023-01-19T15:57:10.238Z,80.54
2023-01-19T15:59:20.097Z,80.59
2023-01-19T16:01:31.864Z,80.84
2023-01-19T16:03:42.002Z,80.70
2023-01-19T16:05:51.900Z,80.75
2023-01-19T16:08:02.029Z,80.88
2023-01-19T16:10:13.297Z,80.81
2023-01-19T16:12:23.110Z,80.97
2023-01-19T16:14:33.097Z,80.82
2023-01-19T16:16:45.454Z,81.04
2023-01-19T16:18:55.700Z,80.98
2023-01-19T16:21:05.430Z,80.67
2023-01-19T16:23:15.754Z,80.95
2023-01-19T16:25:26.545Z,80.88
2023-01-19T16:27:36.263Z,80.82
2023-01-19T16:29:46.204Z,80.71
2023-01-19T16:31:56.013Z,80.67
2023-01-19T16:34:06.247Z,80.84
2023-01-19T16:36:30.779Z,80.81
2023-01-19T16:38:40.858Z,80.70
2023-01-19T16:40:50.640Z,80.80
2023-01-19T16:43:03.343Z,81.02
2023-01-19T16:45:14.011Z,81.02
2023-01-19T16:47:24.316Z,80.83
2023-01-19T16:49:34.996Z,81.07
2023-01-19T16:51:45.342Z,80.97
2023-01-19T16:53:55.428Z,81.10
2023-01-19T16:56:08.798Z,80.98
2023-01-19T16:58:18.660Z,81.08
2023-01-19T17:00:28.677Z,80.94
2023-01-19T17:02:38.595Z,81.37
2023-01-19T17:04:48.604Z,81.02
2023-01-19T17:06:58.860Z,80.99
2023-01-19T17:09:09.949Z,81.30
2023-01-19T17:11:21.253Z,80.92
2023-01-19T17:13:32.051Z,80.97
2023-01-19T17:15:41.994Z,81.04
2023-01-19T17:17:51.887Z,80.80
2023-01-19T17:20:02.265Z,81.10
2023-01-19T17:22:12.548Z,80.93
2023-01-19T17:24:22.705Z,80.71
2023-01-19T17:26:32.387Z,80.77
2023-01-19T17:28:42.403Z,80.78
2023-01-19T17:30:52.534Z,80.62
2023-01-19T17:33:02.455Z,80.73
2023-01-19T17:35:13.012Z,80.68
2023-01-19T17:37:22.875Z,80.63
2023-01-19T17:39:33.184Z,80.66
2023-01-19T17:41:43.281Z,80.62
2023-01-19T17:43:53.926Z,80.69
2023-01-19T17:46:05.670Z,80.38
2023-01-19T17:48:15.935Z,80.61
2023-01-19T17:50:26.271Z,80.54
2023-01-19T17:52:36.281Z,80.70
2023-01-19T17:54:46.286Z,80.47
2023-01-19T17:56:56.567Z,80.54
2023-01-19T17:59:08.449Z,80.48
2023-01-19T18:01:19.345Z,80.53
2023-01-19T18:03:29.086Z,80.07
2023-01-19T18:05:39.474Z,80.26
2023-01-19T18:07:49.796Z,80.06
2023-01-19T18:10:01.056Z,79.98
2023-01-19T18:12:11.677Z,79.72
2023-01-19T18:14:21.479Z,80.02
2023-01-19T18:16:32.871Z,79.77
2023-01-19T18:18:42.943Z,80.12
2023-01-19T18:20:53.239Z,80.04
2023-01-19T18:23:03.174Z,80.16
2023-01-19T18:25:13.445Z,80.31
2023-01-19T18:27:23.480Z,80.09
2023-01-19T18:29:33.458Z,80.24
2023-01-19T18:31:43.660Z,80.27
2023-01-19T18:33:53.826Z,80.07
2023-01-19T18:36:03.941Z,79.85
2023-01-19T18:38:13.878Z,80.24
2023-01-19T18:40:23.661Z,80.04
2023-01-19T18:42:33.866Z,80.27
2023-01-19T18:44:43.763Z,80.25
2023-01-19T18:46:55.094Z,80.03
2023-01-19T18:49:04.871Z,80.04
2023-01-19T18:51:16.171Z,80.32
2023-01-19T18:53:26.124Z,80.15
2023-01-19T18:55:36.769Z,80.25
2023-01-19T18:57:46.731Z,80.50
2023-01-19T18:59:59.798Z,80.14
2023-01-19T19:02:12.687Z,80.14
2023-01-19T19:04:22.677Z,80.01
2023-01-19T19:06:32.864Z,80.04
2023-01-19T19:08:44.488Z,80.20
2023-01-19T19:10:54.386Z,80.13
2023-01-19T19:13:04.774Z,80.06
2023-01-19T19:15:16.053Z,79.92
2023-01-19T19:17:25.881Z,80.18
2023-01-19T19:19:36.291Z,79.86
2023-01-19T19:21:46.920Z,80.03
2023-01-19T19:23:57.706Z,80.12
2023-01-19T19:26:09.966Z,80.20
2023-01-19T19:28:19.928Z,80.06
2023-01-19T19:30:30.815Z,80.20
2023-01-19T19:32:40.774Z,80.13
2023-01-19T19:34:53.123Z,79.92
2023-01-19T19:37:03.294Z,79.79
2023-01-19T19:39:13.342Z,79.69
2023-01-19T19:41:25.448Z,79.84
2023-01-19T19:43:38.108Z,80.01
2023-01-19T19:45:57.424Z,79.74
2023-01-19T19:48:07.579Z,79.75
2023-01-19T19:50:17.884Z,79.69
2023-01-19T19:52:29.170Z,79.69
2023-01-19T19:54:39.644Z,79.94
2023-01-19T19:56:52.337Z,79.72
2023-01-19T19:59:02.944Z,79.66
2023-01-19T20:01:16.775Z,79.87
2023-01-19T20:03:30.116Z,79.77
2023-01-19T20:05:41.451Z,79.78
2023-01-19T20:07:51.737Z,79.80
2023-01-19T20:10:01.777Z,79.79
2023-01-19T20:12:11.699Z,79.96
2023-01-19T20:14:22.805Z,79.84
2023-01-19T20:16:32.810Z,79.71
2023-01-19T20:18:43.959Z,79.58
2023-01-19T20:20:54.611Z,79.71
2023-01-19T20:23:05.112Z,79.63
2023-01-19T20:25:15.401Z,79.81
2023-01-19T20:27:25.118Z,79.48
2023-01-19T20:29:35.371Z,79.60
2023-01-19T20:31:49.131Z,79.55
2023-01-19T20:34:02.322Z,79.61
2023-01-19T20:36:12.728Z,79.36
2023-01-19T20:38:22.235Z,79.36
2023-01-19T20:40:32.001Z,79.34
2023-01-19T20:42:41.814Z,79.39
2023-01-19T20:44:51.459Z,79.28
2023-01-19T20:47:05.826Z,79.18
2023-01-19T20:49:16.442Z,79.21
2023-01-19T20:51:27.279Z,79.27
2023-01-19T20:53:38.572Z,78.97
2023-01-19T20:55:48.395Z,79.24
2023-01-19T20:57:58.212Z,79.29
2023-01-19T21:00:09.627Z,79.14
2023-01-19T21:02:19.591Z,79.13
2023-01-19T21:04:29.540Z,79.18
2023-01-19T21:06:39.632Z,79.19
2023-01-19T21:08:51.179Z,79.24
2023-01-19T21:11:01.584Z,79.02
2023-01-19T21:13:11.345Z,79.32
2023-01-19T21:15:21.309Z,79.29
2023-01-19T21:17:34.002Z,79.24
2023-01-19T21:19:43.975Z,79.39
2023-01-19T21:21:55.541Z,78.97
2023-01-19T21:24:06.825Z,79.17
2023-01-19T21:26:16.968Z,79.00
2023-01-19T21:28:27.199Z,79.16
2023-01-19T21:30:37.864Z,79.07
2023-01-19T21:32:47.547Z,79.06
2023-01-19T21:34:57.333Z,78.91
2023-01-19T21:37:07.603Z,78.83
2023-01-19T21:39:17.580Z,78.77
2023-01-19T21:41:27.167Z,78.88
2023-01-19T21:43:37.392Z,78.63
2023-01-19T21:45:47.876Z,78.44
2023-01-19T21:47:57.830Z,78.55
2023-01-19T21:50:08.508Z,78.45
2023-01-19T21:52:18.413Z,78.49
2023-01-19T21:54:28.702Z,78.48
2023-01-19T21:56:39.618Z,78.54
2023-01-19T21:58:50.953Z,78.48
2023-01-19T22:01:11.328Z,78.41
2023-01-19T22:03:21.520Z,78.24
2023-01-19T22:05:31.874Z,78.33
2023-01-19T22:07:42.141Z,78.26
2023-01-19T22:09:52.130Z,78.26
2023-01-19T22:12:02.020Z,78.17
2023-01-19T22:14:13.880Z,78.23
2023-01-19T22:16:25.416Z,78.28
2023-01-19T22:18:36.120Z,78.30
2023-01-19T22:20:45.968Z,78.38
2023-01-19T22:22:56.075Z,78.46
2023-01-19T22:25:06.412Z,78.35
2023-01-19T22:27:16.646Z,78.16
2023-01-19T22:29:26.418Z,78.30
2023-01-19T22:31:37.357Z,78.13
2023-01-19T22:33:49.450Z,78.04
2023-01-19T22:36:10.147Z,78.01
2023-01-19T22:38:20.203Z,77.98
2023-01-19T22:40:30.060Z,78.16
2023-01-19T22:42:39.986Z,78.11
2023-01-19T22:44:50.143Z,78.12
2023-01-19T22:47:00.196Z,78.06
2023-01-19T22:49:10.885Z,78.29
2023-01-19T22:51:21.238Z,78.13
2023-01-19T22:53:31.894Z,78.18
2023-01-19T22:55:43.364Z,78.17
2023-01-19T22:57:53.430Z,78.01
2023-01-19T23:00:04.910Z,78.13
2023-01-19T23:02:15.069Z,78.00
2023-01-19T23:04:24.942Z,78.10
2023-01-19T23:06:37.659Z,78.01
2023-01-19T23:08:48.928Z,78.11
2023-01-19T23:10:58.936Z,78.12
2023-01-19T23:13:08.392Z,78.09
2023-01-19T23:15:18.324Z,78.24
2023-01-19T23:17:28.785Z,78.05
2023-01-19T23:19:38.851Z,78.07
2023-01-19T23:21:52.157Z,78.11
2023-01-19T23:24:03.107Z,77.78
2023-01-19T23:26:16.137Z,77.85
2023-01-19T23:28:26.503Z,77.93
2023-01-19T23:30:35.720Z,77.80
2023-01-19T23:32:51.223Z,77.95
2023-01-19T23:35:01.194Z,77.90
2023-01-19T23:37:11.178Z,77.90
2023-01-19T23:39:22.549Z,77.95
2023-01-19T23:41:35.110Z,77.80
2023-01-19T23:43:45.786Z,77.71
2023-01-19T23:45:55.726Z,77.55
2023-01-19T23:48:07.092Z,77.56
2023-01-19T23:50:17.694Z,77.48
2023-01-19T23:52:27.486Z,77.61
2023-01-19T23:54:39.506Z,77.46
2023-01-19T23:56:50.310Z,77.43
2023-01-19T23:59:03.611Z,77.44
